RJCW/WKJ METAR and TAF weather

Enter ICAO airport designator
Station Type Date Time Source
RJCW METAR 2020/02/24 07:00 UTC NOAA

RJCW 240700Z 35005KT 9999 FEW015 SCT/// M02/M07 Q1014


Station Type Date Time Source
RJCW Decoded METAR 2020/02/24 07:00 UTC NOAA

Wakkanai Airport, Japan (RJCW) 45-24N 141-48E 11M
Feb 24, 2020 - 02:00 AM EST / 2020.02.24 0700 UTC
Wind: from the N (350 degrees) at 6 MPH (5 KT):0
Visibility: greater than 7 mile(s):0
Sky conditions: partly cloudy
Temperature: 28 F (-2 C)
Windchill: 21 F (-6 C):1
Dew Point: 19 F (-7 C)
Relative Humidity: 68%
Pressure (altimeter): 29.94 in. Hg (1014 hPa)
ob: RJCW 240700Z 35005KT 9999 FEW015 SCT/// M02/M07 Q1014
cycle: 7

Station Type Date Time Source
RJCW TAF UTC NOAA

Error!

Example: see airport list